createdAt,value
2022-12-18T00:01:22.069Z,-2.90
2022-12-18T00:03:49.040Z,-2.88
2022-12-18T00:06:17.031Z,-2.92
2022-12-18T00:08:44.871Z,-2.99
2022-12-18T00:11:17.339Z,-3.08
2022-12-18T00:13:44.314Z,-3.07
2022-12-18T00:16:13.508Z,-3.05
2022-12-18T00:18:40.866Z,-3.07
2022-12-18T00:21:09.615Z,-3.04
2022-12-18T00:23:37.998Z,-3.01
2022-12-18T00:26:08.360Z,-3.13
2022-12-18T00:28:34.902Z,-3.13
2022-12-18T00:31:10.567Z,-3.11
2022-12-18T00:33:38.109Z,-3.14
2022-12-18T00:36:06.854Z,-3.12
2022-12-18T00:38:34.458Z,-3.11
2022-12-18T00:41:01.014Z,-3.03
2022-12-18T00:43:27.905Z,-3.04
2022-12-18T00:45:54.337Z,-3.03
2022-12-18T00:48:20.820Z,-3.06
2022-12-18T00:50:49.600Z,-3.04
2022-12-18T00:53:16.439Z,-3.06
2022-12-18T00:55:43.741Z,-3.07
2022-12-18T00:58:11.096Z,-3.07
2022-12-18T01:00:37.875Z,-3.06
2022-12-18T01:03:05.258Z,-3.08
2022-12-18T01:05:32.397Z,-3.15
2022-12-18T01:07:59.426Z,-3.17
2022-12-18T01:10:26.431Z,-3.19
2022-12-18T01:12:52.952Z,-3.21
2022-12-18T01:15:19.905Z,-3.22
2022-12-18T01:17:46.372Z,-3.20
2022-12-18T01:20:13.274Z,-3.21
2022-12-18T01:22:39.700Z,-3.21
2022-12-18T01:25:06.538Z,-3.24
2022-12-18T01:27:34.418Z,-3.26
2022-12-18T01:30:00.881Z,-3.22
2022-12-18T01:32:27.238Z,-3.19
2022-12-18T01:34:53.573Z,-3.15
2022-12-18T01:37:19.937Z,-3.17
2022-12-18T01:39:46.315Z,-3.18
2022-12-18T01:42:15.660Z,-3.22
2022-12-18T01:44:59.030Z,-3.28
2022-12-18T01:47:37.588Z,-3.29
2022-12-18T01:50:09.002Z,-3.24
2022-12-18T01:52:37.626Z,-3.26
2022-12-18T01:55:07.114Z,-3.28
2022-12-18T01:57:34.115Z,-3.29
2022-12-18T02:00:04.452Z,-3.33
2022-12-18T02:02:31.718Z,-3.35
2022-12-18T02:04:58.279Z,-3.35
2022-12-18T02:07:30.830Z,-3.37
2022-12-18T02:10:07.746Z,-3.44
2022-12-18T02:12:49.490Z,-3.46
2022-12-18T02:15:42.302Z,-3.54
2022-12-18T02:18:19.097Z,-3.58
2022-12-18T02:20:50.503Z,-3.63
2022-12-18T02:23:51.136Z,-3.68
2022-12-18T02:26:29.413Z,-3.69
2022-12-18T02:29:05.890Z,-3.72
2022-12-18T02:31:39.935Z,-3.75
2022-12-18T02:34:08.775Z,-3.78
2022-12-18T02:36:39.863Z,-3.83
2022-12-18T02:39:09.985Z,-3.86
2022-12-18T02:41:37.591Z,-3.86
2022-12-18T02:44:10.799Z,-3.90
2022-12-18T02:46:44.571Z,-3.92
2022-12-18T02:49:45.987Z,-3.97
2022-12-18T02:52:30.789Z,-4.02
2022-12-18T02:55:18.196Z,-4.04
2022-12-18T02:57:54.967Z,-4.08
2022-12-18T03:00:25.440Z,-4.11
2022-12-18T03:03:04.352Z,-4.11
2022-12-18T03:05:45.676Z,-4.15
2022-12-18T03:08:29.793Z,-4.18
2022-12-18T03:11:03.831Z,-4.20
2022-12-18T03:14:07.194Z,-4.23
2022-12-18T03:16:36.645Z,-4.25
2022-12-18T03:19:07.650Z,-4.25
2022-12-18T03:21:43.583Z,-4.30
2022-12-18T03:24:11.921Z,-4.31
2022-12-18T03:26:45.487Z,-4.31
2022-12-18T03:29:22.423Z,-4.30
2022-12-18T03:31:57.477Z,-4.31
2022-12-18T03:34:36.535Z,-4.32
2022-12-18T03:37:03.144Z,-4.32
2022-12-18T03:39:29.654Z,-4.33
2022-12-18T03:42:11.984Z,-4.36
2022-12-18T03:45:03.000Z,-4.35
2022-12-18T03:47:33.466Z,-4.35
2022-12-18T03:50:15.628Z,-4.36
2022-12-18T03:53:01.389Z,-4.37
2022-12-18T03:55:31.730Z,-4.37
2022-12-18T03:57:59.786Z,-4.38
2022-12-18T04:00:26.602Z,-4.37
2022-12-18T04:02:55.830Z,-4.36
2022-12-18T04:05:25.177Z,-4.37
2022-12-18T04:07:53.149Z,-4.40
2022-12-18T04:10:19.603Z,-4.41
2022-12-18T04:12:46.059Z,-4.40
2022-12-18T04:15:13.614Z,-4.39
2022-12-18T04:17:48.567Z,-4.40
2022-12-18T04:20:15.039Z,-4.42
2022-12-18T04:22:41.406Z,-4.44
2022-12-18T04:25:08.207Z,-4.46
2022-12-18T04:27:35.087Z,-4.47
2022-12-18T04:30:01.891Z,-4.47
2022-12-18T04:32:28.316Z,-4.48
2022-12-18T04:34:54.684Z,-4.47
2022-12-18T04:37:21.068Z,-4.47
2022-12-18T04:39:47.635Z,-4.42
2022-12-18T04:42:13.970Z,-4.41
2022-12-18T04:44:40.337Z,-4.43
2022-12-18T04:47:06.704Z,-4.40
2022-12-18T04:49:33.096Z,-4.40
2022-12-18T04:51:59.479Z,-4.36
2022-12-18T04:54:26.454Z,-4.36
2022-12-18T04:56:52.836Z,-4.35
2022-12-18T04:59:19.884Z,-4.37
2022-12-18T05:01:46.994Z,-4.38
2022-12-18T05:04:13.458Z,-4.37
2022-12-18T05:06:39.869Z,-4.34
2022-12-18T05:09:06.367Z,-4.37
2022-12-18T05:11:32.728Z,-4.35
2022-12-18T05:13:59.080Z,-4.38
2022-12-18T05:16:25.465Z,-4.41
2022-12-18T05:18:51.913Z,-4.42
2022-12-18T05:21:18.279Z,-4.47
2022-12-18T05:23:44.689Z,-4.51
2022-12-18T05:26:16.418Z,-4.55
2022-12-18T05:28:42.915Z,-4.59
2022-12-18T05:31:09.462Z,-4.65
2022-12-18T05:33:36.199Z,-4.69
2022-12-18T05:36:05.001Z,-4.72
2022-12-18T05:38:33.246Z,-4.75
2022-12-18T05:40:59.856Z,-4.77
2022-12-18T05:43:27.713Z,-4.78
2022-12-18T05:45:54.854Z,-4.81
2022-12-18T05:48:22.366Z,-4.81
2022-12-18T05:50:50.162Z,-4.83
2022-12-18T05:53:20.215Z,-4.83
2022-12-18T05:55:47.729Z,-4.83
2022-12-18T05:58:15.280Z,-4.84
2022-12-18T06:00:43.999Z,-4.85
2022-12-18T06:03:11.830Z,-4.88
2022-12-18T06:05:43.961Z,-4.90
2022-12-18T06:08:11.529Z,-4.93
2022-12-18T06:10:38.363Z,-4.94
2022-12-18T06:13:05.730Z,-4.97
2022-12-18T06:15:32.331Z,-5.00
2022-12-18T06:17:58.694Z,-5.02
2022-12-18T06:20:29.078Z,-5.03
2022-12-18T06:22:58.224Z,-5.04
2022-12-18T06:25:24.582Z,-5.04
2022-12-18T06:27:50.981Z,-5.06
2022-12-18T06:30:17.511Z,-5.08
2022-12-18T06:32:43.860Z,-5.14
2022-12-18T06:35:10.931Z,-5.17
2022-12-18T06:37:37.423Z,-5.20
2022-12-18T06:40:04.121Z,-5.21
2022-12-18T06:42:30.485Z,-5.22
2022-12-18T06:44:56.873Z,-5.23
2022-12-18T06:47:23.220Z,-5.23
2022-12-18T06:49:50.780Z,-5.24
2022-12-18T06:52:17.286Z,-5.25
2022-12-18T06:54:43.625Z,-5.26
2022-12-18T06:57:10.016Z,-5.27
2022-12-18T06:59:36.354Z,-5.28
2022-12-18T07:02:02.849Z,-5.30
2022-12-18T07:04:30.720Z,-5.34
2022-12-18T07:06:57.167Z,-5.36
2022-12-18T07:09:23.643Z,-5.36
2022-12-18T07:11:50.403Z,-5.38
2022-12-18T07:14:16.760Z,-5.37
2022-12-18T07:16:43.188Z,-5.38
2022-12-18T07:19:09.603Z,-5.40
2022-12-18T07:21:36.143Z,-5.39
2022-12-18T07:24:02.575Z,-5.41
2022-12-18T07:26:28.922Z,-5.43
2022-12-18T07:28:57.264Z,-5.39
2022-12-18T07:31:24.791Z,-5.38
2022-12-18T07:33:52.073Z,-5.38
2022-12-18T07:36:18.674Z,-5.38
2022-12-18T07:38:48.237Z,-5.39
2022-12-18T07:41:14.779Z,-5.38
2022-12-18T07:43:42.763Z,-5.37
2022-12-18T07:46:10.412Z,-5.35
2022-12-18T07:48:36.852Z,-5.36
2022-12-18T07:51:06.418Z,-5.32
2022-12-18T07:53:34.226Z,-5.30
2022-12-18T07:56:26.671Z,-5.30
2022-12-18T07:58:49.602Z,-5.30
2022-12-18T08:01:16.169Z,-5.27
2022-12-18T08:03:43.638Z,-5.25
2022-12-18T08:06:10.989Z,-5.21
2022-12-18T08:08:37.861Z,-5.18
2022-12-18T08:11:04.332Z,-5.16
2022-12-18T08:13:30.734Z,-5.12
2022-12-18T08:16:01.991Z,-5.08
2022-12-18T08:18:29.058Z,-5.01
2022-12-18T08:20:56.408Z,-4.96
2022-12-18T08:23:22.990Z,-4.93
2022-12-18T08:25:49.444Z,-4.91
2022-12-18T08:28:15.872Z,-4.86
2022-12-18T08:30:43.466Z,-4.81
2022-12-18T08:33:09.878Z,-4.78
2022-12-18T08:35:42.514Z,-4.76
2022-12-18T08:38:11.918Z,-4.70
2022-12-18T08:40:38.315Z,-4.63
2022-12-18T08:43:23.294Z,-4.57
2022-12-18T08:45:49.992Z,-4.55
2022-12-18T08:48:21.877Z,-4.54
2022-12-18T08:50:58.910Z,-4.51
2022-12-18T08:53:25.503Z,-4.50
2022-12-18T08:55:51.964Z,-4.43
2022-12-18T08:58:18.794Z,-4.40
2022-12-18T09:00:45.165Z,-4.37
2022-12-18T09:03:13.835Z,-4.32
2022-12-18T09:05:40.511Z,-4.26
2022-12-18T09:08:06.893Z,-4.20
2022-12-18T09:10:35.605Z,-4.15
2022-12-18T09:13:03.958Z,-4.10
2022-12-18T09:15:30.332Z,-4.07
2022-12-18T09:17:56.701Z,-4.02
2022-12-18T09:20:23.042Z,-3.95
2022-12-18T09:22:49.423Z,-3.87
2022-12-18T09:25:16.459Z,-3.80
2022-12-18T09:27:42.867Z,-3.75
2022-12-18T09:30:09.821Z,-3.67
2022-12-18T09:32:36.172Z,-3.62
2022-12-18T09:35:02.668Z,-3.56
2022-12-18T09:37:29.071Z,-3.50
2022-12-18T09:39:55.442Z,-3.44
2022-12-18T09:42:23.292Z,-3.39
2022-12-18T09:44:54.018Z,-3.36
2022-12-18T09:47:32.335Z,-3.32
2022-12-18T09:50:24.682Z,-3.29
2022-12-18T09:52:55.971Z,-3.23
2022-12-18T09:55:36.911Z,-3.19
2022-12-18T09:58:33.210Z,-3.13
2022-12-18T10:00:59.979Z,-3.09
2022-12-18T10:03:26.584Z,-3.10
2022-12-18T10:06:04.999Z,-3.04
2022-12-18T10:08:40.878Z,-2.97
2022-12-18T10:11:45.945Z,-2.92
2022-12-18T10:14:31.310Z,-2.91
2022-12-18T10:17:19.394Z,-2.82
2022-12-18T10:20:41.641Z,-2.77
2022-12-18T10:23:26.857Z,-2.73
2022-12-18T10:26:07.926Z,-2.69
2022-12-18T10:28:37.789Z,-2.68
2022-12-18T10:31:06.924Z,-2.65
2022-12-18T10:33:34.441Z,-2.63
2022-12-18T10:36:01.209Z,-2.62
2022-12-18T10:38:29.809Z,-2.61
2022-12-18T10:41:05.491Z,-2.59
2022-12-18T10:43:33.110Z,-2.54
2022-12-18T10:46:13.724Z,-2.49
2022-12-18T10:48:40.501Z,-2.46
2022-12-18T10:51:12.167Z,-2.42
2022-12-18T10:53:42.848Z,-2.40
2022-12-18T10:56:09.536Z,-2.39
2022-12-18T10:58:38.064Z,-2.35
2022-12-18T11:01:07.002Z,-2.30
2022-12-18T11:03:45.653Z,-2.31
2022-12-18T11:06:22.604Z,-2.28
2022-12-18T11:09:12.284Z,-2.24
2022-12-18T11:11:40.964Z,-2.23
2022-12-18T11:14:23.988Z,-2.21
2022-12-18T11:19:41.742Z,-2.17
2022-12-18T11:22:24.138Z,-2.16
2022-12-18T11:25:29.974Z,-2.12
2022-12-18T11:28:00.150Z,-2.08
2022-12-18T11:30:32.589Z,-2.06
2022-12-18T11:33:16.739Z,-2.03
2022-12-18T11:35:51.619Z,-1.98
2022-12-18T11:38:40.274Z,-1.94
2022-12-18T11:41:49.964Z,-1.90
2022-12-18T11:44:25.976Z,-1.87
2022-12-18T11:47:10.458Z,-1.84
2022-12-18T11:49:37.148Z,-1.76
2022-12-18T11:52:22.113Z,-1.72
2022-12-18T11:54:52.366Z,-1.70
2022-12-18T11:57:29.899Z,-1.66
2022-12-18T12:00:12.161Z,-1.68
2022-12-18T12:03:00.633Z,-1.66
2022-12-18T12:05:33.059Z,-1.66
2022-12-18T12:08:13.934Z,-1.63
2022-12-18T12:10:58.594Z,-1.61
2022-12-18T12:13:31.651Z,-1.58
2022-12-18T12:16:08.167Z,-1.57
2022-12-18T12:18:53.500Z,-1.55
2022-12-18T12:21:29.734Z,-1.54
2022-12-18T12:24:38.080Z,-1.52
2022-12-18T12:27:18.216Z,-1.50
2022-12-18T12:30:03.780Z,-1.46
2022-12-18T12:32:54.550Z,-1.44
2022-12-18T12:35:37.305Z,-1.42
2022-12-18T12:38:20.294Z,-1.42
2022-12-18T12:41:02.728Z,-1.40
2022-12-18T12:43:48.042Z,-1.39
2022-12-18T12:46:20.889Z,-1.37
2022-12-18T12:49:00.096Z,-1.35
2022-12-18T12:51:29.032Z,-1.34
2022-12-18T12:53:58.151Z,-1.34
2022-12-18T12:56:33.664Z,-1.31
2022-12-18T12:59:08.129Z,-1.30
2022-12-18T13:01:40.623Z,-1.28
2022-12-18T13:04:24.784Z,-1.26
2022-12-18T13:07:14.229Z,-1.25
2022-12-18T13:10:25.165Z,-1.21
2022-12-18T13:13:08.975Z,-1.20
2022-12-18T13:15:46.793Z,-1.19
2022-12-18T13:18:24.923Z,-1.18
2022-12-18T13:21:03.288Z,-1.15
2022-12-18T13:23:37.671Z,-1.14
2022-12-18T13:26:07.244Z,-1.12
2022-12-18T13:28:33.555Z,-1.11
2022-12-18T13:31:03.236Z,-1.11
2022-12-18T13:33:29.695Z,-1.10
2022-12-18T13:36:11.624Z,-1.08
2022-12-18T13:38:40.385Z,-1.08
2022-12-18T13:41:15.952Z,-1.07
2022-12-18T13:43:46.646Z,-1.08
2022-12-18T13:46:28.534Z,-1.05
2022-12-18T13:49:04.317Z,-1.07
2022-12-18T13:51:33.950Z,-1.05
2022-12-18T13:54:04.008Z,-1.02
2022-12-18T13:56:33.072Z,-1.02
2022-12-18T13:59:14.794Z,-1.01
2022-12-18T14:01:53.186Z,-1.01
2022-12-18T14:04:19.968Z,-0.99
2022-12-18T14:06:48.702Z,-0.98
2022-12-18T14:09:21.707Z,-0.98
2022-12-18T14:11:50.233Z,-0.97
2022-12-18T14:14:19.575Z,-0.96
2022-12-18T14:16:47.846Z,-0.96
2022-12-18T14:19:19.232Z,-0.96
2022-12-18T14:21:50.747Z,-0.94
2022-12-18T14:24:22.711Z,-0.94
2022-12-18T14:26:51.055Z,-0.94
2022-12-18T14:29:24.784Z,-0.93
2022-12-18T14:32:17.041Z,-0.93
2022-12-18T14:34:51.827Z,-0.93
2022-12-18T14:37:23.223Z,-0.92
2022-12-18T14:40:04.435Z,-0.91
2022-12-18T14:42:35.373Z,-0.90
2022-12-18T14:45:42.304Z,-0.88
2022-12-18T14:48:30.978Z,-0.88
2022-12-18T14:51:02.783Z,-0.86
2022-12-18T14:53:36.552Z,-0.87
2022-12-18T14:56:13.244Z,-0.87
2022-12-18T14:58:40.423Z,-0.86
2022-12-18T15:01:07.652Z,-0.86
2022-12-18T15:03:34.172Z,-0.84
2022-12-18T15:06:17.173Z,-0.84
2022-12-18T15:08:43.721Z,-0.85
2022-12-18T15:11:33.937Z,-0.86
2022-12-18T15:14:01.603Z,-0.86
2022-12-18T15:16:28.051Z,-0.87
2022-12-18T15:18:54.594Z,-0.88
2022-12-18T15:21:22.040Z,-0.86
2022-12-18T15:23:53.482Z,-0.86
2022-12-18T15:26:22.827Z,-0.85
2022-12-18T15:28:52.115Z,-0.87
2022-12-18T15:31:28.911Z,-0.87
2022-12-18T15:33:55.273Z,-0.87
2022-12-18T15:36:26.440Z,-0.87
2022-12-18T15:38:55.059Z,-0.86
2022-12-18T15:41:24.845Z,-0.85
2022-12-18T15:43:53.238Z,-0.84
2022-12-18T15:46:22.293Z,-0.84
2022-12-18T15:48:50.866Z,-0.83
2022-12-18T15:51:21.316Z,-0.84
2022-12-18T15:53:49.923Z,-0.83
2022-12-18T15:56:35.474Z,-0.81
2022-12-18T15:59:02.544Z,-0.80
2022-12-18T16:01:31.323Z,-0.81
2022-12-18T16:03:58.336Z,-0.81
2022-12-18T16:06:24.721Z,-0.83
2022-12-18T16:08:51.131Z,-0.83
2022-12-18T16:11:38.868Z,-0.85
2022-12-18T16:14:20.733Z,-0.85
2022-12-18T16:16:49.089Z,-0.84
2022-12-18T16:19:15.774Z,-0.86
2022-12-18T16:21:42.153Z,-0.84
2022-12-18T16:24:20.411Z,-0.84
2022-12-18T16:26:46.799Z,-0.83
2022-12-18T16:29:13.186Z,-0.82
2022-12-18T16:31:39.678Z,-0.81
2022-12-18T16:34:13.826Z,-0.82
2022-12-18T16:36:40.213Z,-0.82
2022-12-18T16:39:06.697Z,-0.80
2022-12-18T16:41:33.267Z,-0.81
2022-12-18T16:44:00.821Z,-0.81
2022-12-18T16:46:27.283Z,-0.81
2022-12-18T16:48:53.780Z,-0.80
2022-12-18T16:51:20.163Z,-0.79
2022-12-18T16:53:46.532Z,-0.79
2022-12-18T16:56:12.874Z,-0.78
2022-12-18T16:58:39.276Z,-0.77
2022-12-18T17:01:09.712Z,-0.78
2022-12-18T17:03:36.223Z,-0.79
2022-12-18T17:06:05.050Z,-0.79
2022-12-18T17:08:31.994Z,-0.79
2022-12-18T17:11:07.734Z,-0.77
2022-12-18T17:13:35.782Z,-0.76
2022-12-18T17:16:07.143Z,-0.75
2022-12-18T17:18:34.711Z,-0.73
2022-12-18T17:21:07.085Z,-0.72
2022-12-18T17:23:33.476Z,-0.71
2022-12-18T17:26:00.191Z,-0.72
2022-12-18T17:28:27.932Z,-0.71
2022-12-18T17:30:55.745Z,-0.69
2022-12-18T17:33:23.686Z,-0.69
2022-12-18T17:35:50.281Z,-0.68
2022-12-18T17:38:16.901Z,-0.68
2022-12-18T17:40:46.403Z,-0.68
2022-12-18T17:43:13.126Z,-0.68
2022-12-18T17:45:40.242Z,-0.68
2022-12-18T17:48:07.575Z,-0.66
2022-12-18T17:50:35.526Z,-0.65
2022-12-18T17:53:02.666Z,-0.64
2022-12-18T17:55:29.221Z,-0.65
2022-12-18T17:57:55.779Z,-0.65
2022-12-18T18:00:22.242Z,-0.64
2022-12-18T18:02:48.803Z,-0.64
2022-12-18T18:05:15.276Z,-0.64
2022-12-18T18:07:42.929Z,-0.63
2022-12-18T18:10:09.599Z,-0.62
2022-12-18T18:12:55.285Z,-0.61
2022-12-18T18:15:22.115Z,-0.58
2022-12-18T18:17:48.484Z,-0.60
2022-12-18T18:20:22.165Z,-0.60
2022-12-18T18:22:48.983Z,-0.60
2022-12-18T18:25:15.762Z,-0.57
2022-12-18T18:27:42.780Z,-0.56
2022-12-18T18:30:12.737Z,-0.56
2022-12-18T18:32:39.935Z,-0.55
2022-12-18T18:35:19.338Z,-0.54
2022-12-18T18:37:55.018Z,-0.52
2022-12-18T18:40:21.509Z,-0.51
2022-12-18T18:42:48.335Z,-0.51
2022-12-18T18:45:14.812Z,-0.49
2022-12-18T18:47:41.160Z,-0.48
2022-12-18T18:50:07.842Z,-0.47
2022-12-18T18:52:34.275Z,-0.46
2022-12-18T18:55:13.237Z,-0.45
2022-12-18T18:57:40.152Z,-0.42
2022-12-18T19:00:07.475Z,-0.41
2022-12-18T19:02:34.029Z,-0.41
2022-12-18T19:05:00.596Z,-0.39
2022-12-18T19:07:30.330Z,-0.37
2022-12-18T19:10:03.483Z,-0.36
2022-12-18T19:12:49.902Z,-0.34
2022-12-18T19:15:16.272Z,-0.34
2022-12-18T19:17:42.961Z,-0.33
2022-12-18T19:20:13.620Z,-0.31
2022-12-18T19:22:39.981Z,-0.29
2022-12-18T19:25:06.975Z,-0.26
2022-12-18T19:27:36.442Z,-0.24
2022-12-18T19:30:03.294Z,-0.23
2022-12-18T19:32:29.688Z,-0.22
2022-12-18T19:34:57.356Z,-0.22
2022-12-18T19:37:23.788Z,-0.20
2022-12-18T19:39:52.525Z,-0.18
2022-12-18T19:42:25.554Z,-0.18
2022-12-18T19:44:54.622Z,-0.16
2022-12-18T19:47:23.797Z,-0.15
2022-12-18T19:49:50.234Z,-0.14
2022-12-18T19:52:16.655Z,-0.14
2022-12-18T19:54:43.052Z,-0.12
2022-12-18T19:57:11.468Z,-0.10
2022-12-18T19:59:38.080Z,-0.10
2022-12-18T20:02:05.551Z,-0.10
2022-12-18T20:04:32.154Z,-0.12
2022-12-18T20:06:58.889Z,-0.11
2022-12-18T20:09:25.469Z,-0.13
2022-12-18T20:11:52.770Z,-0.17
2022-12-18T20:14:23.143Z,-0.20
2022-12-18T20:16:51.757Z,-0.20
2022-12-18T20:19:18.280Z,-0.18
2022-12-18T20:21:45.346Z,-0.20
2022-12-18T20:24:12.293Z,-0.21
2022-12-18T20:26:39.168Z,-0.22
2022-12-18T20:29:05.514Z,-0.24
2022-12-18T20:31:32.385Z,-0.26
2022-12-18T20:34:01.618Z,-0.28
2022-12-18T20:36:30.783Z,-0.30
2022-12-18T20:39:01.593Z,-0.30
2022-12-18T20:41:35.209Z,-0.30
2022-12-18T20:44:21.800Z,-0.32
2022-12-18T20:46:54.755Z,-0.31
2022-12-18T20:49:21.692Z,-0.30
2022-12-18T20:51:53.059Z,-0.31
2022-12-18T20:54:19.918Z,-0.33
2022-12-18T20:56:46.362Z,-0.30
2022-12-18T20:59:12.901Z,-0.34
2022-12-18T21:01:42.807Z,-0.35
2022-12-18T21:04:15.457Z,-0.34
2022-12-18T21:06:50.813Z,-0.38
2022-12-18T21:09:18.753Z,-0.41
2022-12-18T21:12:03.596Z,-0.38
2022-12-18T21:14:33.659Z,-0.39
2022-12-18T21:17:03.025Z,-0.38
2022-12-18T21:19:30.074Z,-0.40
2022-12-18T21:21:56.983Z,-0.39
2022-12-18T21:24:24.442Z,-0.39
2022-12-18T21:26:51.577Z,-0.37
2022-12-18T21:29:20.551Z,-0.36
2022-12-18T21:31:47.805Z,-0.34
2022-12-18T21:34:20.475Z,-0.33
2022-12-18T21:36:47.665Z,-0.32
2022-12-18T21:39:15.875Z,-0.33
2022-12-18T21:42:01.348Z,-0.31
2022-12-18T21:44:27.822Z,-0.34
2022-12-18T21:46:58.982Z,-0.33
2022-12-18T21:49:30.364Z,-0.32
2022-12-18T21:51:58.556Z,-0.31
2022-12-18T21:54:27.019Z,-0.28
2022-12-18T21:56:55.859Z,-0.28
2022-12-18T21:59:23.936Z,-0.27
2022-12-18T22:01:51.813Z,-0.25
2022-12-18T22:04:19.267Z,-0.24
2022-12-18T22:06:46.910Z,-0.23
2022-12-18T22:09:16.563Z,-0.20
2022-12-18T22:11:43.580Z,-0.19
2022-12-18T22:14:10.867Z,-0.19
2022-12-18T22:16:37.703Z,-0.20
2022-12-18T22:19:04.987Z,-0.22
2022-12-18T22:21:36.730Z,-0.23
2022-12-18T22:24:17.896Z,-0.20
2022-12-18T22:26:46.403Z,-0.21
2022-12-18T22:29:37.280Z,-0.18
2022-12-18T22:32:05.361Z,-0.17
2022-12-18T22:34:36.447Z,-0.16
2022-12-18T22:37:03.334Z,-0.14
2022-12-18T22:39:30.642Z,-0.13
2022-12-18T22:41:57.907Z,-0.11
2022-12-18T22:44:24.357Z,-0.10
2022-12-18T22:47:05.351Z,-0.10
2022-12-18T22:49:35.225Z,-0.07
2022-12-18T22:52:03.373Z,-0.08
2022-12-18T22:54:29.855Z,-0.07
2022-12-18T22:56:56.969Z,-0.05
2022-12-18T22:59:23.749Z,-0.05
2022-12-18T23:01:56.257Z,-0.04
2022-12-18T23:04:29.085Z,-0.05
2022-12-18T23:07:01.520Z,-0.03
2022-12-18T23:09:28.478Z,-0.01
2022-12-18T23:11:54.837Z,-0.01
2022-12-18T23:14:21.193Z,0.00
2022-12-18T23:16:47.588Z,0.02
2022-12-18T23:19:16.287Z,0.03
2022-12-18T23:21:42.677Z,0.03
2022-12-18T23:24:09.398Z,0.04
2022-12-18T23:26:37.392Z,0.05
2022-12-18T23:29:04.107Z,0.05
2022-12-18T23:31:33.229Z,0.06
2022-12-18T23:34:01.383Z,0.07
2022-12-18T23:36:28.869Z,0.08
2022-12-18T23:39:00.442Z,0.11
2022-12-18T23:41:30.209Z,0.12
2022-12-18T23:43:57.651Z,0.12
2022-12-18T23:46:27.126Z,0.14
2022-12-18T23:48:58.352Z,0.13
2022-12-18T23:51:25.747Z,0.14
2022-12-18T23:53:53.608Z,0.17
2022-12-18T23:56:20.409Z,0.15
2022-12-18T23:58:48.536Z,0.16
